This is the latest recevied weather packets stored in our database for station/object KQ4OSL. If no packets are shown the sender has not sent any weather packets the latest 10 day(s).
| Time | Temp. | Humidity | Pressure | Rain* | Wind** | Luminosity | Snow |
|---|---|---|---|---|---|---|---|
| 1777946289 | 14.44° C | 79% | 1016.3 hPa | 0 mm | - | 0 W/m² | - |
| 1777945986 | 14.44° C | 78% | 1016.3 hPa | 0 mm | - | 0 W/m² | - |
| 1777945684 | 14.44° C | 77% | 1016.4 hPa | 0 mm | - | 0 W/m² | - |
| 1777945380 | 14.44° C | 78% | 1016.5 hPa | 0 mm | - | 0 W/m² | - |
| 1777945077 | 14.44° C | 78% | 1016.4 hPa | 0 mm | - | 0 W/m² | - |
| 1777944774 | 14.44° C | 78% | 1016.3 hPa | 0 mm | - | 0 W/m² | - |
| 1777944473 | 15° C | 76% | 1016.2 hPa | 0 mm | - | 0 W/m² | - |
| 1777944170 | 15° C | 74% | 1016.2 hPa | 0 mm | - | 0 W/m² | - |
| 1777943865 | 15.56° C | 74% | 1016.1 hPa | 0 mm | - | 0 W/m² | - |
| 1777943563 | 15.56° C | 73% | 1016.2 hPa | 0 mm | - | 0 W/m² | - |
| 1777943258 | 15.56° C | 73% | 1016.2 hPa | 0 mm | - | 0 W/m² | - |
| 1777942955 | 15.56° C | 72% | 1016.2 hPa | 0 mm | - | 0 W/m² | - |
| 1777942651 | 16.11° C | 71% | 1016.1 hPa | 0 mm | - | 0 W/m² | - |
| 1777942348 | 16.67° C | 69% | 1016.1 hPa | 0 mm | - | 0 W/m² | - |
| 1777942045 | 17.22° C | 67% | 1016.1 hPa | 0 mm | - | 0 W/m² | - |
| 1777941742 | 17.22° C | 67% | 1016 hPa | 0 mm | - | 0 W/m² | - |
| 1777941439 | 17.78° C | 66% | 1015.9 hPa | 0 mm | - | 0 W/m² | - |
| 1777941137 | 17.78° C | 67% | 1015.9 hPa | 0 mm | - | 1 W/m² | - |
| 1777940833 | 18.33° C | 63% | 1015.8 hPa | 0 mm | - | 2 W/m² | - |
| 1777940531 | 18.33° C | 62% | 1015.9 hPa | 0 mm | - | 3 W/m² | - |
| 1777940228 | 18.89° C | 59% | 1015.6 hPa | 0 mm | - | 5 W/m² | - |
| 1777939925 | 19.44° C | 59% | 1015.8 hPa | 0 mm | - | 7 W/m² | - |
| 1777939622 | 19.44° C | 58% | 1015.8 hPa | 0 mm | - | 9 W/m² | - |
| 1777939320 | 20° C | 57% | 1015.9 hPa | 0 mm | - | 11 W/m² | - |
| 1777939016 | 20.56° C | 55% | 1016 hPa | 0 mm | - | 13 W/m² | - |
* Rain latest hour (hover to see other rain measurements)
** Current wind speed in m/s (hover to see current wind gust speed)